sensor_id;sensor_type;location;lat;lon;timestamp;P1;durP1;ratioP1;P2;durP2;ratioP2
789;SDS011;378;48.844;9.156;2024-01-06T00:02:08;5.57;;;2.17;;
789;SDS011;378;48.844;9.156;2024-01-06T00:04:34;5.03;;;1.85;;
789;SDS011;378;48.844;9.156;2024-01-06T00:07:01;8.00;;;2.65;;
789;SDS011;378;48.844;9.156;2024-01-06T00:09:31;6.10;;;2.10;;
789;SDS011;378;48.844;9.156;2024-01-06T00:11:57;4.45;;;2.00;;
789;SDS011;378;48.844;9.156;2024-01-06T00:14:24;10.30;;;2.22;;
789;SDS011;378;48.844;9.156;2024-01-06T00:16:51;7.07;;;2.33;;
789;SDS011;378;48.844;9.156;2024-01-06T00:19:18;6.32;;;2.30;;
789;SDS011;378;48.844;9.156;2024-01-06T00:21:45;7.32;;;2.53;;
789;SDS011;378;48.844;9.156;2024-01-06T00:24:11;4.90;;;1.98;;
789;SDS011;378;48.844;9.156;2024-01-06T00:26:39;5.47;;;1.90;;
789;SDS011;378;48.844;9.156;2024-01-06T00:29:09;3.45;;;1.52;;
789;SDS011;378;48.844;9.156;2024-01-06T00:31:35;3.45;;;1.70;;
789;SDS011;378;48.844;9.156;2024-01-06T00:34:02;4.47;;;1.90;;
789;SDS011;378;48.844;9.156;2024-01-06T00:36:29;4.32;;;1.77;;
789;SDS011;378;48.844;9.156;2024-01-06T00:38:56;4.38;;;1.95;;
789;SDS011;378;48.844;9.156;2024-01-06T00:41:22;3.63;;;1.63;;
789;SDS011;378;48.844;9.156;2024-01-06T00:43:51;6.40;;;1.75;;
789;SDS011;378;48.844;9.156;2024-01-06T00:46:17;4.10;;;1.50;;
789;SDS011;378;48.844;9.156;2024-01-06T00:48:44;3.33;;;1.50;;
789;SDS011;378;48.844;9.156;2024-01-06T00:51:13;5.97;;;2.30;;
789;SDS011;378;48.844;9.156;2024-01-06T00:53:40;4.85;;;1.60;;
789;SDS011;378;48.844;9.156;2024-01-06T00:56:07;2.70;;;1.50;;
789;SDS011;378;48.844;9.156;2024-01-06T00:58:33;7.75;;;1.75;;
789;SDS011;378;48.844;9.156;2024-01-06T01:01:01;4.43;;;1.70;;
789;SDS011;378;48.844;9.156;2024-01-06T01:03:28;7.78;;;1.70;;
789;SDS011;378;48.844;9.156;2024-01-06T01:05:55;5.85;;;1.48;;
789;SDS011;378;48.844;9.156;2024-01-06T01:08:22;2.35;;;1.30;;
789;SDS011;378;48.844;9.156;2024-01-06T01:10:49;6.07;;;1.38;;
789;SDS011;378;48.844;9.156;2024-01-06T01:13:16;5.03;;;1.30;;
789;SDS011;378;48.844;9.156;2024-01-06T01:15:47;3.00;;;1.35;;
789;SDS011;378;48.844;9.156;2024-01-06T01:18:18;4.43;;;1.17;;
789;SDS011;378;48.844;9.156;2024-01-06T01:20:46;5.75;;;1.23;;
789;SDS011;378;48.844;9.156;2024-01-06T01:23:12;6.00;;;2.00;;
789;SDS011;378;48.844;9.156;2024-01-06T01:25:41;3.38;;;1.10;;
789;SDS011;378;48.844;9.156;2024-01-06T01:28:08;6.00;;;1.30;;
789;SDS011;378;48.844;9.156;2024-01-06T01:30:35;6.03;;;1.48;;
789;SDS011;378;48.844;9.156;2024-01-06T01:33:02;5.05;;;1.50;;
789;SDS011;378;48.844;9.156;2024-01-06T01:35:30;3.72;;;1.10;;
789;SDS011;378;48.844;9.156;2024-01-06T01:37:57;3.83;;;1.00;;
789;SDS011;378;48.844;9.156;2024-01-06T01:40:25;5.72;;;1.45;;
789;SDS011;378;48.844;9.156;2024-01-06T01:42:52;3.75;;;1.10;;
789;SDS011;378;48.844;9.156;2024-01-06T01:45:18;5.20;;;1.25;;
789;SDS011;378;48.844;9.156;2024-01-06T01:47:45;6.43;;;1.52;;
789;SDS011;378;48.844;9.156;2024-01-06T01:50:12;7.88;;;1.67;;
789;SDS011;378;48.844;9.156;2024-01-06T01:52:41;4.75;;;1.55;;
789;SDS011;378;48.844;9.156;2024-01-06T01:55:17;7.55;;;1.20;;
789;SDS011;378;48.844;9.156;2024-01-06T01:57:44;4.65;;;1.38;;
789;SDS011;378;48.844;9.156;2024-01-06T02:00:11;3.95;;;1.60;;
789;SDS011;378;48.844;9.156;2024-01-06T02:02:39;3.45;;;1.20;;
789;SDS011;378;48.844;9.156;2024-01-06T02:05:06;4.75;;;1.10;;
789;SDS011;378;48.844;9.156;2024-01-06T02:07:37;4.85;;;1.40;;
789;SDS011;378;48.844;9.156;2024-01-06T02:10:06;2.97;;;1.30;;
789;SDS011;378;48.844;9.156;2024-01-06T02:12:33;6.35;;;1.50;;
789;SDS011;378;48.844;9.156;2024-01-06T02:15:00;5.20;;;1.30;;
789;SDS011;378;48.844;9.156;2024-01-06T02:17:27;6.95;;;1.40;;
789;SDS011;378;48.844;9.156;2024-01-06T02:19:54;6.43;;;1.55;;
789;SDS011;378;48.844;9.156;2024-01-06T02:22:23;5.70;;;1.20;;
789;SDS011;378;48.844;9.156;2024-01-06T02:24:53;3.40;;;1.33;;
789;SDS011;378;48.844;9.156;2024-01-06T02:27:20;2.80;;;1.33;;
789;SDS011;378;48.844;9.156;2024-01-06T02:29:47;8.65;;;1.40;;
789;SDS011;378;48.844;9.156;2024-01-06T02:32:13;5.68;;;1.30;;
789;SDS011;378;48.844;9.156;2024-01-06T02:34:40;6.63;;;1.20;;
789;SDS011;378;48.844;9.156;2024-01-06T02:37:09;4.35;;;0.93;;
789;SDS011;378;48.844;9.156;2024-01-06T02:39:39;2.15;;;0.90;;
789;SDS011;378;48.844;9.156;2024-01-06T02:42:11;2.83;;;1.08;;
789;SDS011;378;48.844;9.156;2024-01-06T02:44:38;6.88;;;1.10;;
789;SDS011;378;48.844;9.156;2024-01-06T02:47:05;4.35;;;1.25;;
789;SDS011;378;48.844;9.156;2024-01-06T02:49:31;3.30;;;1.15;;
789;SDS011;378;48.844;9.156;2024-01-06T02:51:58;5.15;;;1.13;;
789;SDS011;378;48.844;9.156;2024-01-06T02:54:25;2.85;;;1.20;;
789;SDS011;378;48.844;9.156;2024-01-06T02:56:53;10.10;;;1.33;;
789;SDS011;378;48.844;9.156;2024-01-06T02:59:20;7.55;;;1.48;;
789;SDS011;378;48.844;9.156;2024-01-06T03:01:47;4.20;;;1.10;;
789;SDS011;378;48.844;9.156;2024-01-06T03:04:13;6.35;;;1.20;;
789;SDS011;378;48.844;9.156;2024-01-06T03:06:43;8.10;;;1.65;;
789;SDS011;378;48.844;9.156;2024-01-06T03:09:18;9.57;;;1.20;;
789;SDS011;378;48.844;9.156;2024-01-06T03:11:45;5.97;;;1.30;;
789;SDS011;378;48.844;9.156;2024-01-06T03:14:13;5.07;;;1.17;;
789;SDS011;378;48.844;9.156;2024-01-06T03:16:40;5.88;;;1.45;;
789;SDS011;378;48.844;9.156;2024-01-06T03:19:07;4.18;;;1.30;;
789;SDS011;378;48.844;9.156;2024-01-06T03:21:34;2.83;;;1.10;;
789;SDS011;378;48.844;9.156;2024-01-06T03:24:00;5.40;;;1.05;;
789;SDS011;378;48.844;9.156;2024-01-06T03:26:27;8.90;;;1.23;;
789;SDS011;378;48.844;9.156;2024-01-06T03:28:54;6.47;;;1.08;;
789;SDS011;378;48.844;9.156;2024-01-06T03:31:22;8.20;;;1.20;;
789;SDS011;378;48.844;9.156;2024-01-06T03:33:49;2.88;;;1.00;;
789;SDS011;378;48.844;9.156;2024-01-06T03:36:17;8.45;;;1.30;;
789;SDS011;378;48.844;9.156;2024-01-06T03:38:44;3.92;;;0.90;;
789;SDS011;378;48.844;9.156;2024-01-06T03:41:11;5.10;;;1.25;;
789;SDS011;378;48.844;9.156;2024-01-06T03:43:40;4.60;;;0.93;;
789;SDS011;378;48.844;9.156;2024-01-06T03:46:06;3.55;;;1.13;;
789;SDS011;378;48.844;9.156;2024-01-06T03:48:35;7.07;;;1.45;;
789;SDS011;378;48.844;9.156;2024-01-06T03:51:02;2.38;;;1.20;;
789;SDS011;378;48.844;9.156;2024-01-06T03:53:29;4.15;;;1.10;;
789;SDS011;378;48.844;9.156;2024-01-06T03:55:58;3.35;;;1.10;;
789;SDS011;378;48.844;9.156;2024-01-06T03:58:25;5.15;;;1.25;;
789;SDS011;378;48.844;9.156;2024-01-06T04:00:52;3.20;;;1.05;;
789;SDS011;378;48.844;9.156;2024-01-06T04:03:19;3.38;;;1.08;;
789;SDS011;378;48.844;9.156;2024-01-06T04:05:47;5.78;;;1.45;;
789;SDS011;378;48.844;9.156;2024-01-06T04:08:14;4.18;;;0.93;;
789;SDS011;378;48.844;9.156;2024-01-06T04:10:41;3.70;;;1.13;;
789;SDS011;378;48.844;9.156;2024-01-06T04:13:08;5.32;;;1.25;;
789;SDS011;378;48.844;9.156;2024-01-06T04:15:34;4.50;;;1.00;;
789;SDS011;378;48.844;9.156;2024-01-06T04:18:01;4.68;;;1.95;;
789;SDS011;378;48.844;9.156;2024-01-06T04:20:29;3.20;;;1.02;;
789;SDS011;378;48.844;9.156;2024-01-06T04:23:00;5.47;;;1.20;;
789;SDS011;378;48.844;9.156;2024-01-06T04:25:27;4.60;;;1.38;;
789;SDS011;378;48.844;9.156;2024-01-06T04:27:54;8.52;;;2.05;;
789;SDS011;378;48.844;9.156;2024-01-06T04:30:21;2.90;;;1.20;;
789;SDS011;378;48.844;9.156;2024-01-06T04:32:54;5.72;;;1.10;;
789;SDS011;378;48.844;9.156;2024-01-06T04:35:22;1.33;;;1.10;;
789;SDS011;378;48.844;9.156;2024-01-06T04:37:50;5.43;;;1.30;;
789;SDS011;378;48.844;9.156;2024-01-06T04:40:18;3.30;;;1.20;;
789;SDS011;378;48.844;9.156;2024-01-06T04:42:45;4.05;;;1.33;;
789;SDS011;378;48.844;9.156;2024-01-06T04:45:13;3.78;;;1.05;;
789;SDS011;378;48.844;9.156;2024-01-06T04:47:44;3.63;;;1.10;;
789;SDS011;378;48.844;9.156;2024-01-06T04:50:13;2.45;;;1.13;;
789;SDS011;378;48.844;9.156;2024-01-06T04:52:40;4.65;;;1.02;;
789;SDS011;378;48.844;9.156;2024-01-06T04:55:07;5.20;;;1.20;;
789;SDS011;378;48.844;9.156;2024-01-06T04:57:35;3.47;;;1.08;;
789;SDS011;378;48.844;9.156;2024-01-06T05:00:02;2.90;;;1.40;;
789;SDS011;378;48.844;9.156;2024-01-06T05:02:30;5.15;;;1.30;;
789;SDS011;378;48.844;9.156;2024-01-06T05:04:57;4.93;;;1.50;;
789;SDS011;378;48.844;9.156;2024-01-06T05:07:23;1.40;;;1.10;;
789;SDS011;378;48.844;9.156;2024-01-06T05:09:50;5.72;;;1.40;;
789;SDS011;378;48.844;9.156;2024-01-06T05:12:17;4.82;;;1.20;;
789;SDS011;378;48.844;9.156;2024-01-06T05:14:45;2.05;;;1.13;;
789;SDS011;378;48.844;9.156;2024-01-06T05:17:12;7.03;;;1.20;;
789;SDS011;378;48.844;9.156;2024-01-06T05:19:39;4.03;;;1.23;;
789;SDS011;378;48.844;9.156;2024-01-06T05:22:05;6.40;;;1.73;;
789;SDS011;378;48.844;9.156;2024-01-06T05:24:32;3.55;;;1.27;;
789;SDS011;378;48.844;9.156;2024-01-06T05:26:59;3.20;;;1.00;;
789;SDS011;378;48.844;9.156;2024-01-06T05:29:26;4.30;;;1.20;;
789;SDS011;378;48.844;9.156;2024-01-06T05:31:56;4.90;;;1.20;;
789;SDS011;378;48.844;9.156;2024-01-06T05:34:24;2.80;;;1.13;;
789;SDS011;378;48.844;9.156;2024-01-06T05:36:51;5.45;;;1.50;;
789;SDS011;378;48.844;9.156;2024-01-06T05:39:18;6.47;;;1.08;;
789;SDS011;378;48.844;9.156;2024-01-06T05:41:45;4.85;;;1.35;;
789;SDS011;378;48.844;9.156;2024-01-06T05:44:12;3.97;;;1.60;;
789;SDS011;378;48.844;9.156;2024-01-06T05:46:38;5.13;;;1.40;;
789;SDS011;378;48.844;9.156;2024-01-06T05:49:07;3.67;;;1.30;;
789;SDS011;378;48.844;9.156;2024-01-06T05:51:35;3.47;;;1.20;;
789;SDS011;378;48.844;9.156;2024-01-06T05:54:02;3.40;;;1.65;;
789;SDS011;378;48.844;9.156;2024-01-06T05:56:29;5.20;;;1.55;;
789;SDS011;378;48.844;9.156;2024-01-06T05:58:55;2.17;;;1.33;;
789;SDS011;378;48.844;9.156;2024-01-06T06:01:22;3.63;;;1.17;;
789;SDS011;378;48.844;9.156;2024-01-06T06:03:50;2.15;;;1.27;;
789;SDS011;378;48.844;9.156;2024-01-06T06:06:18;4.50;;;1.50;;
789;SDS011;378;48.844;9.156;2024-01-06T06:08:47;4.45;;;1.40;;
789;SDS011;378;48.844;9.156;2024-01-06T06:11:14;11.45;;;2.17;;
789;SDS011;378;48.844;9.156;2024-01-06T06:13:41;4.43;;;1.50;;
789;SDS011;378;48.844;9.156;2024-01-06T06:16:09;4.15;;;1.60;;
789;SDS011;378;48.844;9.156;2024-01-06T06:18:37;5.53;;;1.50;;
789;SDS011;378;48.844;9.156;2024-01-06T06:21:05;5.38;;;1.50;;
789;SDS011;378;48.844;9.156;2024-01-06T06:23:34;4.22;;;1.75;;
789;SDS011;378;48.844;9.156;2024-01-06T06:26:04;10.48;;;2.38;;
789;SDS011;378;48.844;9.156;2024-01-06T06:28:34;3.65;;;1.50;;
789;SDS011;378;48.844;9.156;2024-01-06T06:31:02;4.50;;;1.85;;
789;SDS011;378;48.844;9.156;2024-01-06T06:33:29;4.47;;;1.45;;
789;SDS011;378;48.844;9.156;2024-01-06T06:35:58;3.17;;;1.60;;
789;SDS011;378;48.844;9.156;2024-01-06T06:38:25;5.15;;;1.65;;
789;SDS011;378;48.844;9.156;2024-01-06T06:40:53;4.53;;;1.80;;
789;SDS011;378;48.844;9.156;2024-01-06T06:43:20;9.10;;;1.83;;
789;SDS011;378;48.844;9.156;2024-01-06T06:45:46;3.45;;;1.50;;
789;SDS011;378;48.844;9.156;2024-01-06T06:48:13;4.75;;;1.70;;
789;SDS011;378;48.844;9.156;2024-01-06T06:50:40;4.60;;;1.42;;
789;SDS011;378;48.844;9.156;2024-01-06T06:53:07;3.65;;;1.80;;
789;SDS011;378;48.844;9.156;2024-01-06T06:55:36;3.67;;;1.70;;
789;SDS011;378;48.844;9.156;2024-01-06T06:58:05;1.85;;;1.38;;
789;SDS011;378;48.844;9.156;2024-01-06T07:00:32;2.88;;;1.50;;
789;SDS011;378;48.844;9.156;2024-01-06T07:02:59;3.47;;;1.85;;
789;SDS011;378;48.844;9.156;2024-01-06T07:05:26;3.38;;;1.60;;
789;SDS011;378;48.844;9.156;2024-01-06T07:07:56;3.28;;;1.67;;
789;SDS011;378;48.844;9.156;2024-01-06T07:10:22;3.58;;;1.55;;
789;SDS011;378;48.844;9.156;2024-01-06T07:12:52;2.92;;;1.60;;
789;SDS011;378;48.844;9.156;2024-01-06T07:15:20;3.80;;;1.58;;
789;SDS011;378;48.844;9.156;2024-01-06T07:17:47;4.03;;;1.80;;
789;SDS011;378;48.844;9.156;2024-01-06T07:20:13;6.03;;;2.10;;
789;SDS011;378;48.844;9.156;2024-01-06T07:22:40;5.20;;;2.10;;
789;SDS011;378;48.844;9.156;2024-01-06T07:25:07;4.80;;;2.50;;
789;SDS011;378;48.844;9.156;2024-01-06T07:27:36;3.97;;;1.88;;
789;SDS011;378;48.844;9.156;2024-01-06T07:30:04;3.95;;;1.80;;
789;SDS011;378;48.844;9.156;2024-01-06T07:32:34;7.93;;;2.00;;
789;SDS011;378;48.844;9.156;2024-01-06T07:35:01;4.25;;;1.63;;
789;SDS011;378;48.844;9.156;2024-01-06T07:37:28;3.95;;;1.65;;
789;SDS011;378;48.844;9.156;2024-01-06T07:39:55;3.45;;;2.00;;
789;SDS011;378;48.844;9.156;2024-01-06T07:42:21;6.82;;;1.70;;
789;SDS011;378;48.844;9.156;2024-01-06T07:44:48;3.05;;;1.70;;
789;SDS011;378;48.844;9.156;2024-01-06T07:47:15;4.47;;;1.70;;
789;SDS011;378;48.844;9.156;2024-01-06T07:49:43;5.15;;;1.80;;
789;SDS011;378;48.844;9.156;2024-01-06T07:52:11;3.95;;;2.05;;
789;SDS011;378;48.844;9.156;2024-01-06T07:54:38;6.25;;;1.90;;
789;SDS011;378;48.844;9.156;2024-01-06T07:57:05;4.28;;;2.28;;
789;SDS011;378;48.844;9.156;2024-01-06T07:59:32;3.08;;;1.60;;
789;SDS011;378;48.844;9.156;2024-01-06T08:01:59;4.47;;;1.83;;
789;SDS011;378;48.844;9.156;2024-01-06T08:04:26;3.65;;;1.50;;
789;SDS011;378;48.844;9.156;2024-01-06T08:06:54;2.97;;;1.90;;
789;SDS011;378;48.844;9.156;2024-01-06T08:09:20;6.82;;;1.67;;
789;SDS011;378;48.844;9.156;2024-01-06T08:11:48;3.92;;;1.77;;
789;SDS011;378;48.844;9.156;2024-01-06T08:14:15;3.40;;;1.67;;
789;SDS011;378;48.844;9.156;2024-01-06T08:16:42;3.65;;;1.67;;
789;SDS011;378;48.844;9.156;2024-01-06T08:19:09;4.65;;;1.92;;
789;SDS011;378;48.844;9.156;2024-01-06T08:21:36;7.70;;;1.80;;
789;SDS011;378;48.844;9.156;2024-01-06T08:24:04;2.58;;;1.40;;
789;SDS011;378;48.844;9.156;2024-01-06T08:26:31;3.05;;;2.00;;
789;SDS011;378;48.844;9.156;2024-01-06T08:28:58;2.20;;;1.30;;
789;SDS011;378;48.844;9.156;2024-01-06T08:31:25;2.60;;;1.73;;
789;SDS011;378;48.844;9.156;2024-01-06T08:33:52;4.03;;;1.65;;
789;SDS011;378;48.844;9.156;2024-01-06T08:36:19;3.33;;;1.63;;
789;SDS011;378;48.844;9.156;2024-01-06T08:38:46;4.32;;;1.52;;
789;SDS011;378;48.844;9.156;2024-01-06T08:41:15;2.88;;;1.70;;
789;SDS011;378;48.844;9.156;2024-01-06T08:43:42;5.30;;;2.10;;
789;SDS011;378;48.844;9.156;2024-01-06T08:46:08;2.30;;;1.50;;
789;SDS011;378;48.844;9.156;2024-01-06T08:48:35;5.55;;;1.38;;
789;SDS011;378;48.844;9.156;2024-01-06T08:51:02;3.28;;;1.92;;
789;SDS011;378;48.844;9.156;2024-01-06T08:53:30;7.13;;;2.35;;
789;SDS011;378;48.844;9.156;2024-01-06T08:55:57;5.53;;;2.10;;
789;SDS011;378;48.844;9.156;2024-01-06T08:58:25;3.22;;;2.10;;
789;SDS011;378;48.844;9.156;2024-01-06T09:00:52;3.70;;;1.80;;
789;SDS011;378;48.844;9.156;2024-01-06T09:03:19;2.85;;;1.98;;
789;SDS011;378;48.844;9.156;2024-01-06T09:05:50;5.53;;;1.60;;
789;SDS011;378;48.844;9.156;2024-01-06T09:08:17;2.78;;;1.40;;
789;SDS011;378;48.844;9.156;2024-01-06T09:10:44;1.65;;;1.50;;
789;SDS011;378;48.844;9.156;2024-01-06T09:13:11;4.13;;;1.90;;
789;SDS011;378;48.844;9.156;2024-01-06T09:15:39;3.22;;;1.75;;
789;SDS011;378;48.844;9.156;2024-01-06T09:18:06;5.93;;;2.72;;
789;SDS011;378;48.844;9.156;2024-01-06T09:20:32;3.58;;;1.52;;
789;SDS011;378;48.844;9.156;2024-01-06T09:22:59;1.98;;;1.63;;
789;SDS011;378;48.844;9.156;2024-01-06T09:25:26;2.15;;;1.33;;
789;SDS011;378;48.844;9.156;2024-01-06T09:27:53;3.80;;;1.45;;
789;SDS011;378;48.844;9.156;2024-01-06T09:30:20;3.47;;;1.60;;
789;SDS011;378;48.844;9.156;2024-01-06T09:32:48;4.30;;;1.35;;
789;SDS011;378;48.844;9.156;2024-01-06T09:35:15;1.88;;;1.30;;
789;SDS011;378;48.844;9.156;2024-01-06T09:37:42;2.85;;;1.33;;
789;SDS011;378;48.844;9.156;2024-01-06T09:40:10;2.45;;;1.60;;
789;SDS011;378;48.844;9.156;2024-01-06T09:42:39;2.85;;;1.67;;
789;SDS011;378;48.844;9.156;2024-01-06T09:45:06;3.95;;;1.40;;
789;SDS011;378;48.844;9.156;2024-01-06T09:47:34;2.38;;;1.50;;
789;SDS011;378;48.844;9.156;2024-01-06T09:50:03;4.63;;;1.58;;
789;SDS011;378;48.844;9.156;2024-01-06T09:52:34;3.63;;;2.20;;
789;SDS011;378;48.844;9.156;2024-01-06T09:55:08;4.65;;;2.75;;
789;SDS011;378;48.844;9.156;2024-01-06T09:57:36;6.55;;;3.65;;
789;SDS011;378;48.844;9.156;2024-01-06T10:00:04;5.38;;;3.38;;
789;SDS011;378;48.844;9.156;2024-01-06T10:02:33;4.63;;;3.20;;
789;SDS011;378;48.844;9.156;2024-01-06T10:05:00;5.25;;;3.38;;
789;SDS011;378;48.844;9.156;2024-01-06T10:07:28;5.70;;;2.80;;
789;SDS011;378;48.844;9.156;2024-01-06T10:09:55;5.10;;;2.50;;
789;SDS011;378;48.844;9.156;2024-01-06T10:12:22;4.07;;;2.20;;
789;SDS011;378;48.844;9.156;2024-01-06T10:14:50;6.32;;;2.17;;
789;SDS011;378;48.844;9.156;2024-01-06T10:17:17;3.80;;;1.80;;
789;SDS011;378;48.844;9.156;2024-01-06T10:19:44;4.35;;;1.70;;
789;SDS011;378;48.844;9.156;2024-01-06T10:22:12;2.13;;;1.50;;
789;SDS011;378;48.844;9.156;2024-01-06T10:24:40;4.43;;;1.70;;
789;SDS011;378;48.844;9.156;2024-01-06T10:27:07;3.00;;;1.63;;
789;SDS011;378;48.844;9.156;2024-01-06T10:29:35;3.28;;;1.50;;
789;SDS011;378;48.844;9.156;2024-01-06T10:32:02;4.90;;;1.60;;
789;SDS011;378;48.844;9.156;2024-01-06T10:34:30;5.95;;;1.65;;
789;SDS011;378;48.844;9.156;2024-01-06T10:36:57;2.95;;;1.50;;
789;SDS011;378;48.844;9.156;2024-01-06T10:39:25;1.70;;;1.23;;
789;SDS011;378;48.844;9.156;2024-01-06T10:41:55;1.48;;;1.15;;
789;SDS011;378;48.844;9.156;2024-01-06T10:44:22;2.65;;;1.70;;
789;SDS011;378;48.844;9.156;2024-01-06T10:46:50;2.92;;;1.67;;
789;SDS011;378;48.844;9.156;2024-01-06T10:49:19;4.45;;;1.52;;
789;SDS011;378;48.844;9.156;2024-01-06T10:52:05;3.25;;;1.70;;
789;SDS011;378;48.844;9.156;2024-01-06T10:54:33;2.08;;;1.60;;
789;SDS011;378;48.844;9.156;2024-01-06T10:57:30;3.63;;;1.83;;
789;SDS011;378;48.844;9.156;2024-01-06T10:59:58;3.63;;;2.00;;
789;SDS011;378;48.844;9.156;2024-01-06T11:02:31;3.83;;;2.35;;
789;SDS011;378;48.844;9.156;2024-01-06T11:08:46;3.78;;;2.15;;
789;SDS011;378;48.844;9.156;2024-01-06T11:11:20;4.60;;;2.17;;
789;SDS011;378;48.844;9.156;2024-01-06T11:13:51;5.40;;;2.33;;
789;SDS011;378;48.844;9.156;2024-01-06T11:16:34;3.45;;;2.30;;
789;SDS011;378;48.844;9.156;2024-01-06T11:19:10;4.35;;;2.35;;
789;SDS011;378;48.844;9.156;2024-01-06T11:22:24;5.13;;;2.90;;
789;SDS011;378;48.844;9.156;2024-01-06T11:24:53;4.53;;;2.50;;
789;SDS011;378;48.844;9.156;2024-01-06T11:27:23;3.13;;;2.50;;
789;SDS011;378;48.844;9.156;2024-01-06T11:29:53;6.03;;;2.63;;
789;SDS011;378;48.844;9.156;2024-01-06T11:32:20;2.88;;;2.40;;
789;SDS011;378;48.844;9.156;2024-01-06T11:34:53;3.13;;;2.35;;
789;SDS011;378;48.844;9.156;2024-01-06T11:37:24;6.53;;;3.22;;
789;SDS011;378;48.844;9.156;2024-01-06T11:40:01;3.65;;;2.60;;
789;SDS011;378;48.844;9.156;2024-01-06T11:42:33;7.80;;;2.85;;
789;SDS011;378;48.844;9.156;2024-01-06T11:45:08;6.13;;;2.90;;
789;SDS011;378;48.844;9.156;2024-01-06T11:47:35;7.03;;;2.70;;
789;SDS011;378;48.844;9.156;2024-01-06T11:50:02;4.57;;;3.00;;
789;SDS011;378;48.844;9.156;2024-01-06T11:52:30;4.53;;;3.13;;
789;SDS011;378;48.844;9.156;2024-01-06T11:54:57;5.80;;;2.90;;
789;SDS011;378;48.844;9.156;2024-01-06T11:57:25;4.50;;;3.30;;
789;SDS011;378;48.844;9.156;2024-01-06T11:59:57;4.82;;;2.80;;
789;SDS011;378;48.844;9.156;2024-01-06T12:02:26;7.85;;;3.22;;
789;SDS011;378;48.844;9.156;2024-01-06T12:04:53;5.15;;;3.35;;
789;SDS011;378;48.844;9.156;2024-01-06T12:07:25;5.93;;;3.88;;
789;SDS011;378;48.844;9.156;2024-01-06T12:10:00;6.25;;;3.72;;
789;SDS011;378;48.844;9.156;2024-01-06T12:12:32;6.85;;;3.60;;
789;SDS011;378;48.844;9.156;2024-01-06T12:15:07;4.30;;;3.17;;
789;SDS011;378;48.844;9.156;2024-01-06T12:17:39;7.35;;;3.22;;
789;SDS011;378;48.844;9.156;2024-01-06T12:20:07;6.05;;;3.65;;
789;SDS011;378;48.844;9.156;2024-01-06T12:22:35;7.00;;;4.22;;
789;SDS011;378;48.844;9.156;2024-01-06T12:25:02;7.32;;;3.67;;
789;SDS011;378;48.844;9.156;2024-01-06T12:27:31;5.43;;;3.60;;
789;SDS011;378;48.844;9.156;2024-01-06T12:30:00;4.80;;;3.10;;
789;SDS011;378;48.844;9.156;2024-01-06T12:32:28;4.07;;;3.25;;
789;SDS011;378;48.844;9.156;2024-01-06T12:34:56;8.63;;;4.97;;
789;SDS011;378;48.844;9.156;2024-01-06T12:37:25;6.45;;;4.10;;
789;SDS011;378;48.844;9.156;2024-01-06T12:39:52;4.68;;;3.30;;
789;SDS011;378;48.844;9.156;2024-01-06T12:42:23;6.10;;;3.58;;
789;SDS011;378;48.844;9.156;2024-01-06T12:44:57;9.43;;;3.97;;
789;SDS011;378;48.844;9.156;2024-01-06T12:47:26;7.65;;;4.22;;
789;SDS011;378;48.844;9.156;2024-01-06T12:49:53;8.15;;;4.43;;
789;SDS011;378;48.844;9.156;2024-01-06T12:52:31;8.32;;;4.03;;
789;SDS011;378;48.844;9.156;2024-01-06T12:55:04;7.35;;;4.15;;
789;SDS011;378;48.844;9.156;2024-01-06T12:57:32;9.32;;;4.57;;
789;SDS011;378;48.844;9.156;2024-01-06T12:59:59;11.55;;;5.20;;
789;SDS011;378;48.844;9.156;2024-01-06T13:02:26;8.65;;;4.78;;
789;SDS011;378;48.844;9.156;2024-01-06T13:04:53;9.45;;;3.80;;
789;SDS011;378;48.844;9.156;2024-01-06T13:07:21;5.18;;;3.72;;
789;SDS011;378;48.844;9.156;2024-01-06T13:09:48;5.10;;;3.85;;
789;SDS011;378;48.844;9.156;2024-01-06T13:12:18;7.82;;;4.03;;
789;SDS011;378;48.844;9.156;2024-01-06T13:14:45;5.70;;;3.78;;
789;SDS011;378;48.844;9.156;2024-01-06T13:17:13;4.85;;;3.70;;
789;SDS011;378;48.844;9.156;2024-01-06T13:19:40;6.82;;;3.95;;
789;SDS011;378;48.844;9.156;2024-01-06T13:22:11;5.32;;;3.72;;
789;SDS011;378;48.844;9.156;2024-01-06T13:24:39;6.40;;;3.92;;
789;SDS011;378;48.844;9.156;2024-01-06T13:27:06;5.32;;;3.78;;
789;SDS011;378;48.844;9.156;2024-01-06T13:29:34;6.82;;;4.55;;
789;SDS011;378;48.844;9.156;2024-01-06T13:32:01;7.50;;;4.45;;
789;SDS011;378;48.844;9.156;2024-01-06T13:34:28;6.22;;;4.53;;
789;SDS011;378;48.844;9.156;2024-01-06T13:36:55;6.57;;;4.80;;
789;SDS011;378;48.844;9.156;2024-01-06T13:39:22;7.00;;;4.65;;
789;SDS011;378;48.844;9.156;2024-01-06T13:41:50;9.25;;;5.75;;
789;SDS011;378;48.844;9.156;2024-01-06T13:44:17;9.98;;;5.97;;
789;SDS011;378;48.844;9.156;2024-01-06T13:46:44;7.60;;;4.78;;
789;SDS011;378;48.844;9.156;2024-01-06T13:49:14;10.98;;;7.03;;
789;SDS011;378;48.844;9.156;2024-01-06T13:51:41;10.20;;;6.10;;
789;SDS011;378;48.844;9.156;2024-01-06T13:54:09;15.90;;;8.20;;
789;SDS011;378;48.844;9.156;2024-01-06T13:56:36;14.15;;;7.47;;
789;SDS011;378;48.844;9.156;2024-01-06T13:59:04;9.43;;;5.68;;
789;SDS011;378;48.844;9.156;2024-01-06T14:01:31;10.90;;;5.43;;
789;SDS011;378;48.844;9.156;2024-01-06T14:04:01;8.77;;;5.85;;
789;SDS011;378;48.844;9.156;2024-01-06T14:06:28;8.48;;;5.72;;
789;SDS011;378;48.844;9.156;2024-01-06T14:08:55;8.00;;;5.60;;
789;SDS011;378;48.844;9.156;2024-01-06T14:11:22;10.30;;;5.80;;
789;SDS011;378;48.844;9.156;2024-01-06T14:13:51;9.82;;;6.28;;
789;SDS011;378;48.844;9.156;2024-01-06T14:16:19;12.30;;;7.47;;
789;SDS011;378;48.844;9.156;2024-01-06T14:18:48;10.13;;;5.40;;
789;SDS011;378;48.844;9.156;2024-01-06T14:21:15;10.40;;;5.82;;
789;SDS011;378;48.844;9.156;2024-01-06T14:23:44;8.35;;;5.55;;
789;SDS011;378;48.844;9.156;2024-01-06T14:26:11;12.68;;;6.00;;
789;SDS011;378;48.844;9.156;2024-01-06T14:28:38;9.77;;;5.88;;
789;SDS011;378;48.844;9.156;2024-01-06T14:31:05;11.57;;;5.60;;
789;SDS011;378;48.844;9.156;2024-01-06T14:33:33;11.10;;;6.05;;
789;SDS011;378;48.844;9.156;2024-01-06T14:36:00;11.93;;;6.20;;
789;SDS011;378;48.844;9.156;2024-01-06T14:38:28;11.52;;;6.50;;
789;SDS011;378;48.844;9.156;2024-01-06T14:40:55;9.27;;;5.97;;
789;SDS011;378;48.844;9.156;2024-01-06T14:43:21;12.00;;;7.00;;
789;SDS011;378;48.844;9.156;2024-01-06T14:45:50;9.60;;;6.05;;
789;SDS011;378;48.844;9.156;2024-01-06T14:48:17;11.45;;;6.10;;
789;SDS011;378;48.844;9.156;2024-01-06T14:50:45;11.27;;;7.13;;
789;SDS011;378;48.844;9.156;2024-01-06T14:53:13;12.25;;;6.60;;
789;SDS011;378;48.844;9.156;2024-01-06T14:55:40;17.15;;;6.10;;
789;SDS011;378;48.844;9.156;2024-01-06T14:58:07;10.85;;;6.35;;
789;SDS011;378;48.844;9.156;2024-01-06T15:00:34;11.10;;;6.38;;
789;SDS011;378;48.844;9.156;2024-01-06T15:03:03;10.25;;;5.15;;
789;SDS011;378;48.844;9.156;2024-01-06T15:05:30;10.55;;;6.20;;
789;SDS011;378;48.844;9.156;2024-01-06T15:07:59;11.10;;;6.05;;
789;SDS011;378;48.844;9.156;2024-01-06T15:10:26;10.70;;;6.55;;
789;SDS011;378;48.844;9.156;2024-01-06T15:12:53;12.18;;;6.60;;
789;SDS011;378;48.844;9.156;2024-01-06T15:15:20;11.25;;;6.38;;
789;SDS011;378;48.844;9.156;2024-01-06T15:17:49;12.18;;;6.25;;
789;SDS011;378;48.844;9.156;2024-01-06T15:20:15;12.32;;;6.72;;
789;SDS011;378;48.844;9.156;2024-01-06T15:22:42;10.63;;;6.43;;
789;SDS011;378;48.844;9.156;2024-01-06T15:25:11;12.70;;;6.55;;
789;SDS011;378;48.844;9.156;2024-01-06T15:27:38;12.95;;;6.95;;
789;SDS011;378;48.844;9.156;2024-01-06T15:30:05;11.13;;;6.50;;
789;SDS011;378;48.844;9.156;2024-01-06T15:32:34;10.45;;;6.15;;
789;SDS011;378;48.844;9.156;2024-01-06T15:35:06;13.05;;;6.75;;
789;SDS011;378;48.844;9.156;2024-01-06T15:37:34;13.82;;;7.53;;
789;SDS011;378;48.844;9.156;2024-01-06T15:40:01;14.57;;;7.18;;
789;SDS011;378;48.844;9.156;2024-01-06T15:42:30;13.65;;;7.78;;
789;SDS011;378;48.844;9.156;2024-01-06T15:44:57;12.27;;;7.38;;
789;SDS011;378;48.844;9.156;2024-01-06T15:47:24;13.77;;;7.80;;
789;SDS011;378;48.844;9.156;2024-01-06T15:49:51;13.85;;;7.97;;
789;SDS011;378;48.844;9.156;2024-01-06T15:52:18;14.27;;;7.25;;